LGW weather

London Gatwick Airport
London, England, United Kingdom

Public forecast

Using degrees Celsius for public forecast. Weather courtesy of forecast.io.

METAR (pilot weather report)

Retrieved 2017/07/23 04:20 UTC (0 seconds ago):

EGKK 230420Z 00000KT 2000 0600NE R26L/0750 BCFG MIFG SCT001 10/10 Q1010

TAF (pilot weather forecast)

Forecast is more than 12 hours old.

Retrieved 2017/07/22 00:15 UTC (1 day ago):

TAF EGKK 222304Z 2300/2406 VRB04KT 9999 FEW020 SCT035 TEMPO 2300/2307 6000 PROB30 TEMPO 2302/2307 0500 BCFG BKN000 BECMG 2308/2311 25010KT TEMPO 2312/2320 6000 SHRA PROB30 2402/2406 6000 -RADZ BKN008